Time;durP1;ratioP1;P1;durP2;ratioP2;P2;SDS_P1;SDS_P2;PMS_P1;PMS_P2;Temp;Humidity;BMP_temperature;BMP_pressure;BME280_temperature;BME280_humidity;BME280_pressure;Samples;Min_cycle;Max_cycle;Signal;HPM_P1;HPM_P2
2022/03/03 07:59:10;;;;;;;22.80;16.65;;;;;;;3.57;54.02;101743.59;5279463;28;20929;-67
2022/03/03 08:01:44;;;;;;;28.25;16.65;;;;;;;3.58;54.01;101755.41;5255603;28;20542;-67
2022/03/03 08:04:16;;;;;;;22.00;17.55;;;;;;;3.67;54.55;101752.19;5259328;28;20029;-67
2022/03/03 08:06:48;;;;;;;23.70;17.52;;;;;;;3.66;54.27;101760.66;5259493;28;20480;-67
2022/03/03 08:09:22;;;;;;;21.65;17.13;;;;;;;3.85;53.93;101758.81;5258303;28;20037;-67
2022/03/03 08:11:54;;;;;;;22.02;17.25;;;;;;;3.95;54.17;101763.81;5258236;28;20040;-67
2022/03/03 08:14:29;;;;;;;25.08;16.23;;;;;;;4.06;54.17;101763.09;5240669;28;20766;-68
2022/03/03 08:17:01;;;;;;;22.25;16.67;;;;;;;4.11;54.08;101763.25;5257532;28;20032;-67
2022/03/03 08:19:32;;;;;;;20.48;16.20;;;;;;;4.17;55.38;101762.38;5248619;28;20385;-66
2022/03/03 08:22:03;;;;;;;22.90;15.68;;;;;;;4.47;62.91;101753.41;5251807;28;20543;-76
2022/03/03 08:24:35;;;;;;;25.77;17.40;;;;;;;4.26;54.37;101755.50;5257719;28;20059;-78
2022/03/03 08:27:07;;;;;;;17.98;15.23;;;;;;;4.40;53.72;101749.88;5242343;28;20025;-79
2022/03/03 08:29:39;;;;;;;22.30;16.15;;;;;;;4.57;53.57;101751.81;5246361;28;20075;-79
2022/03/03 08:32:16;;;;;;;21.13;16.48;;;;;;;4.63;53.16;101744.59;5258867;28;20022;-79
2022/03/03 08:35:07;;;;;;;22.08;16.30;;;;;;;4.81;53.22;101752.00;5269269;28;20036;-80
2022/03/03 08:37:41;;;;;;;21.95;16.17;;;;;;;4.73;53.36;101755.91;5258006;28;20106;-80
2022/03/03 08:40:17;;;;;;;21.02;16.40;;;;;;;4.85;52.46;101752.38;5259077;28;20024;-80
2022/03/03 08:42:56;;;;;;;20.80;15.73;;;;;;;4.84;51.89;101753.44;5258955;28;20025;-80
2022/03/03 08:45:29;;;;;;;23.15;16.95;;;;;;;4.91;51.91;101751.44;5245950;28;20100;-80
2022/03/03 08:48:07;;;;;;;19.98;16.42;;;;;;;4.99;51.24;101760.22;5256924;28;20135;-80
2022/03/03 08:50:41;;;;;;;20.13;16.00;;;;;;;5.06;51.35;101760.13;5243770;28;20485;-80
2022/03/03 08:53:12;;;;;;;20.35;16.35;;;;;;;5.06;50.92;101757.38;5258355;28;20388;-80
2022/03/03 08:55:46;;;;;;;19.92;16.08;;;;;;;5.21;51.19;101752.31;5252371;28;20032;-80
2022/03/03 08:58:18;;;;;;;21.98;15.27;;;;;;;5.22;50.88;101758.69;5255659;28;20049;-80
2022/03/03 09:00:50;;;;;;;22.83;15.48;;;;;;;5.44;52.47;101756.25;5242931;28;20031;-79
2022/03/03 09:03:22;;;;;;;19.33;13.88;;;;;;;5.41;49.36;101753.97;5253567;28;20034;-78
2022/03/03 09:05:56;;;;;;;19.35;13.73;;;;;;;5.54;50.24;101762.03;5247254;28;20029;-78
2022/03/03 09:08:30;;;;;;;17.48;14.50;;;;;;;5.63;49.40;101766.16;5255927;28;20024;-82
2022/03/03 09:11:01;;;;;;;19.50;13.93;;;;;;;5.68;48.53;101756.34;5244614;28;20408;-79
2022/03/03 09:13:33;;;;;;;17.65;14.10;;;;;;;5.79;48.53;101761.03;5225871;28;20037;-79
2022/03/03 09:16:04;;;;;;;21.25;15.88;;;;;;;5.84;47.27;101762.00;5234497;28;20029;-80
2022/03/03 09:18:36;;;;;;;16.52;13.77;;;;;;;5.95;47.29;101762.31;5231846;28;20911;-79
2022/03/03 09:21:07;;;;;;;22.35;18.70;;;;;;;5.97;46.94;101766.50;5242504;28;20022;-78
2022/03/03 09:23:42;;;;;;;20.17;14.90;;;;;;;6.01;47.02;101762.22;5232867;28;20041;-78
2022/03/03 09:26:14;;;;;;;17.38;14.52;;;;;;;6.19;48.20;101754.94;5235488;28;20025;-79
2022/03/03 09:28:45;;;;;;;18.00;14.35;;;;;;;6.26;47.74;101752.88;5243601;28;20039;-79
2022/03/03 09:31:16;;;;;;;18.23;14.85;;;;;;;6.28;46.83;101748.81;5241464;28;20025;-79
2022/03/03 09:33:47;;;;;;;18.50;14.27;;;;;;;6.29;47.10;101747.75;5222387;28;20105;-78
2022/03/03 09:36:19;;;;;;;18.88;13.95;;;;;;;6.39;47.71;101740.78;5225839;28;20036;-80
2022/03/03 09:38:50;;;;;;;20.88;15.23;;;;;;;6.44;47.42;101740.91;5228048;28;20038;-81
2022/03/03 09:41:21;;;;;;;17.42;14.65;;;;;;;6.50;46.44;101737.19;5243710;28;20029;-79
2022/03/03 09:43:53;;;;;;;19.63;15.93;;;;;;;6.61;46.38;101738.25;5227074;28;20088;-79
2022/03/03 09:46:24;;;;;;;19.83;14.90;;;;;;;6.71;45.74;101739.31;5226855;28;20040;-79
2022/03/03 09:48:56;;;;;;;17.30;14.10;;;;;;;6.78;46.60;101738.38;5234961;28;20079;-80
2022/03/03 09:51:27;;;;;;;19.73;13.55;;;;;;;6.80;45.46;101736.19;5243863;28;20057;-78
2022/03/03 09:53:59;;;;;;;16.33;12.93;;;;;;;6.92;46.75;101734.25;5222429;28;20133;-78
2022/03/03 09:56:30;;;;;;;16.52;14.00;;;;;;;6.98;45.78;101725.00;5223153;28;20462;-78
2022/03/03 09:59:01;;;;;;;14.80;13.20;;;;;;;7.10;46.80;101733.22;5230417;28;20465;-77
2022/03/03 10:01:34;;;;;;;17.40;12.20;;;;;;;7.22;45.79;101739.56;5222890;28;20432;-80
2022/03/03 10:04:20;;;;;;;15.98;13.80;;;;;;;7.21;44.81;101743.41;5222927;28;20034;-81
2022/03/03 10:06:51;;;;;;;18.10;13.40;;;;;;;7.30;45.88;101741.09;5222342;28;20061;-78
2022/03/03 10:09:23;;;;;;;15.35;13.43;;;;;;;7.38;44.57;101744.28;5230119;28;20057;-77
2022/03/03 10:12:09;;;;;;;17.70;13.13;;;;;;;7.45;44.12;101735.88;5243088;28;20021;-78
2022/03/03 10:14:41;;;;;;;14.73;13.18;;;;;;;7.40;42.69;101736.59;5242061;28;20037;-78
2022/03/03 10:17:13;;;;;;;14.63;12.73;;;;;;;7.57;44.23;101731.13;5243479;28;20075;-79
2022/03/03 10:19:52;;;;;;;14.65;11.82;;;;;;;7.74;44.29;101725.59;5242747;28;20108;-80
2022/03/03 10:22:57;;;;;;;17.33;12.68;;;;;;;7.82;43.68;101733.50;5234015;28;20033;-75
2022/03/03 10:25:33;;;;;;;15.60;12.45;;;;;;;7.75;42.40;101727.31;5223384;28;20152;-78
2022/03/03 10:28:26;;;;;;;21.38;13.25;;;;;;;7.82;42.79;101728.00;5222594;28;20034;-80
2022/03/03 10:31:03;;;;;;;18.23;13.40;;;;;;;7.90;43.39;101726.75;5224808;28;20384;-78
2022/03/03 10:33:39;;;;;;;19.27;13.70;;;;;;;7.93;42.02;101720.72;5235846;28;20040;-79
2022/03/03 10:36:14;;;;;;;;;;;;;;;8.09;43.03;101721.78;5242561;28;20017;-79
2022/03/03 10:39:00;;;;;;;15.60;12.57;;;;;;;8.13;41.95;101711.91;5243256;28;20444;-73
2022/03/03 10:41:57;;;;;;;17.70;13.98;;;;;;;8.20;42.13;101715.31;5238883;28;20380;-73
2022/03/03 10:44:32;;;;;;;12.30;10.15;;;;;;;8.47;49.83;101706.38;5236658;28;20041;-80
2022/03/03 10:47:11;;;;;;;14.30;11.43;;;;;;;8.52;44.16;101714.72;5232682;28;20534;-76
2022/03/03 10:49:46;;;;;;;17.73;12.68;;;;;;;8.58;43.10;101708.16;5237877;28;20368;-75
2022/03/03 10:52:31;;;;;;;17.23;13.32;;;;;;;8.63;43.02;101707.41;5242467;28;20516;-76
2022/03/03 10:55:16;;;;;;;15.60;13.25;;;;;;;8.57;40.30;101703.75;5226952;28;20029;-75
2022/03/03 10:57:59;;;;;;;14.55;12.50;;;;;;;8.62;40.07;101714.88;5220827;28;20046;-74
2022/03/03 11:00:34;;;;;;;17.92;13.18;;;;;;;8.68;40.37;101713.00;5231362;28;20060;-76
2022/03/03 11:03:09;;;;;;;19.90;13.63;;;;;;;8.70;39.57;101708.91;5242408;28;20383;-77
2022/03/03 11:05:41;;;;;;;20.52;14.95;;;;;;;8.76;39.79;101708.97;5242283;28;20472;-76
2022/03/03 11:08:12;;;;;;;16.17;12.23;;;;;;;8.79;38.79;101708.44;5224308;28;20068;-78
2022/03/03 11:10:44;;;;;;;16.80;11.68;;;;;;;8.79;38.79;101708.44;5242131;28;20022;-78
2022/03/03 11:13:15;;;;;;;13.77;11.85;;;;;;;8.82;38.51;101707.94;5241278;28;20071;-77
2022/03/03 11:15:48;;;;;;;17.17;13.50;;;;;;;8.89;38.36;101708.56;5241687;28;20484;-77
2022/03/03 11:18:20;;;;;;;16.33;13.20;;;;;;;9.06;39.44;101702.97;5232015;28;20065;-78
2022/03/03 11:20:51;;;;;;;83.97;75.05;;;;;;;9.11;38.62;101703.88;5221397;28;20068;-78
2022/03/03 11:23:23;;;;;;;40.20;30.40;;;;;;;9.21;39.35;101694.03;5225253;28;20538;-78
2022/03/03 11:25:54;;;;;;;18.58;11.00;;;;;;;9.43;42.73;101707.81;5234881;28;20021;-78
2022/03/03 11:28:34;;;;;;;17.55;11.82;;;;;;;9.41;37.41;101702.56;5241281;28;20060;-75
2022/03/03 11:31:30;;;;;;;11.13;9.82;;;;;;;9.46;36.41;101694.28;5241543;28;20503;-78
2022/03/03 11:34:37;;;;;;;12.32;10.98;;;;;;;9.52;35.56;101696.00;5235836;28;20029;-77
2022/03/03 11:37:15;;;;;;;13.63;9.65;;;;;;;9.65;39.55;101691.16;5237969;28;20045;-78
2022/03/03 11:39:57;;;;;;;13.80;10.43;;;;;;;9.68;34.95;101682.31;5235211;28;20068;-79
2022/03/03 11:42:39;;;;;;;14.35;10.15;;;;;;;9.75;34.65;101685.69;5240289;28;20052;-78
2022/03/03 11:45:13;;;;;;;32.47;27.92;;;;;;;9.82;34.12;101674.38;5230158;28;20025;-72
2022/03/03 11:47:47;;;;;;;11.77;9.38;;;;;;;9.95;37.90;101680.31;5238709;28;20048;-74
2022/03/03 11:50:24;;;;;;;14.35;12.02;;;;;;;10.01;37.37;101676.47;5241350;28;20108;-75
2022/03/03 11:52:59;;;;;;;16.08;11.90;;;;;;;10.14;38.31;101666.03;5241424;28;20026;-76
2022/03/03 11:55:44;;;;;;;13.98;11.50;;;;;;;10.14;35.95;101669.63;5240617;28;20086;-74
2022/03/03 11:58:24;;;;;;;16.63;12.48;;;;;;;10.16;35.86;101664.66;5241447;28;20088;-74
2022/03/03 12:00:59;;;;;;;13.65;11.60;;;;;;;10.27;37.71;101668.34;5240579;28;20045;-77
2022/03/03 12:03:30;;;;;;;11.32;9.85;;;;;;;10.29;32.14;101659.78;5241436;28;20116;-74
2022/03/03 12:06:10;;;;;;;15.27;9.70;;;;;;;10.40;32.15;101661.50;5241304;28;20028;-74
2022/03/03 12:08:42;;;;;;;11.20;8.52;;;;;;;10.49;32.29;101659.09;5238903;28;20535;-72
2022/03/03 12:11:17;;;;;;;14.30;11.05;;;;;;;10.61;34.49;101656.94;5241380;28;20022;-77
2022/03/03 12:13:50;;;;;;;12.43;11.10;;;;;;;10.63;34.53;101661.09;5241803;28;20036;-78
2022/03/03 12:16:24;;;;;;;15.60;12.65;;;;;;;10.76;34.02;101657.00;5241136;28;20534;-77
2022/03/03 12:18:55;;;;;;;12.20;10.90;;;;;;;10.85;33.54;101660.06;5241092;28;20473;-78
2022/03/03 12:21:29;;;;;;;13.90;10.83;;;;;;;10.99;33.16;101661.25;5240757;28;20025;-76
2022/03/03 12:24:13;;;;;;;11.65;10.27;;;;;;;11.06;32.95;101659.03;5241062;28;20291;-77
2022/03/03 12:26:50;;;;;;;11.35;9.40;;;;;;;11.20;31.98;101655.75;5236732;28;20034;-77
2022/03/03 12:29:48;;;;;;;12.52;10.85;;;;;;;11.31;32.49;101654.66;5219810;28;20483;-74
2022/03/03 12:32:42;;;;;;;12.60;11.27;;;;;;;11.49;31.07;101650.50;5234553;28;20397;-75
2022/03/03 12:35:26;;;;;;;9.57;8.57;;;;;;;11.55;31.54;101657.72;5220012;28;20034;-74
2022/03/03 12:38:04;;;;;;;14.77;11.15;;;;;;;11.65;34.19;101652.16;5220495;28;20381;-77
2022/03/03 12:40:36;;;;;;;10.95;9.75;;;;;;;11.73;32.42;101646.09;5233647;28;20109;-77
2022/03/03 12:43:13;;;;;;;36.10;28.38;;;;;;;11.79;31.34;101649.69;5225846;28;20526;-75
2022/03/03 12:45:45;;;;;;;19.73;12.13;;;;;;;11.87;31.93;101651.09;5230534;28;20017;-75
2022/03/03 12:48:28;;;;;;;11.05;9.90;;;;;;;11.97;31.34;101656.66;5244006;28;20036;-75
2022/03/03 12:51:08;;;;;;;10.90;9.80;;;;;;;12.02;31.97;101644.72;5243610;28;20026;-75
2022/03/03 12:53:47;;;;;;;10.70;9.60;;;;;;;12.08;30.99;101649.13;5244363;28;20500;-74
2022/03/03 12:56:26;;;;;;;12.48;10.02;;;;;;;12.00;29.90;101649.72;5243805;28;20108;-75
2022/03/03 12:59:06;;;;;;;13.88;9.68;;;;;;;12.14;31.74;101639.66;5239148;28;20496;-78
2022/03/03 13:01:38;;;;;;;13.38;11.55;;;;;;;12.28;30.49;101634.34;5223848;28;20038;-77
2022/03/03 13:04:13;;;;;;;10.98;9.80;;;;;;;12.42;29.80;101632.63;5223418;28;20088;-78
2022/03/03 13:06:44;;;;;;;18.98;10.82;;;;;;;12.51;30.68;101644.84;5233823;28;20080;-73
2022/03/03 13:09:17;;;;;;;11.98;10.75;;;;;;;12.62;31.21;101635.34;5239524;28;20029;-73
2022/03/03 13:11:54;;;;;;;12.75;9.73;;;;;;;12.61;41.94;101630.91;5243573;28;20029;-72
2022/03/03 13:14:26;;;;;;;13.98;10.70;;;;;;;12.61;32.28;101627.28;5244130;28;20022;-72
2022/03/03 13:17:06;;;;;;;12.77;10.60;;;;;;;12.64;29.61;101628.69;5235426;28;20041;-72
2022/03/03 13:19:47;;;;;;;12.10;10.07;;;;;;;12.62;31.13;101624.22;5243342;28;20032;-72
2022/03/03 13:22:22;;;;;;;12.63;10.23;;;;;;;12.77;36.37;101626.09;5237334;28;20129;-73
2022/03/03 13:25:18;;;;;;;12.68;10.88;;;;;;;12.80;30.42;101619.13;5230278;28;20033;-73
2022/03/03 13:27:49;;;;;;;17.77;11.63;;;;;;;12.90;31.58;101613.50;5243969;28;20087;-72
2022/03/03 13:30:21;;;;;;;11.77;10.52;;;;;;;12.88;29.87;101617.69;5229685;28;20018;-73
2022/03/03 13:32:53;;;;;;;11.70;10.48;;;;;;;12.89;28.65;101614.63;5237168;28;20038;-73
2022/03/03 13:35:26;;;;;;;23.67;20.73;;;;;;;12.88;30.37;101612.97;5222987;28;20026;-78
2022/03/03 13:38:04;;;;;;;14.68;11.48;;;;;;;13.02;30.25;101610.41;5242177;28;20044;-78
2022/03/03 13:40:37;;;;;;;14.38;10.65;;;;;;;13.08;28.79;101609.22;5243295;28;20032;-77
2022/03/03 13:43:09;;;;;;;15.25;10.85;;;;;;;13.16;27.76;101603.03;5238904;28;20033;-76
2022/03/03 13:45:40;;;;;;;14.30;10.52;;;;;;;13.26;29.03;101608.56;5242283;28;20029;-77
2022/03/03 13:48:15;;;;;;;12.32;10.25;;;;;;;13.33;29.92;101610.22;5243504;28;20091;-78
2022/03/03 13:51:01;;;;;;;13.15;11.18;;;;;;;13.38;29.55;101599.88;5231320;28;20026;-78
2022/03/03 13:53:35;;;;;;;13.77;10.00;;;;;;;13.49;30.90;101603.41;5222275;28;20022;-77
2022/03/03 13:56:08;;;;;;;13.23;10.02;;;;;;;13.55;32.23;101596.69;5223961;28;20034;-78
2022/03/03 13:58:40;;;;;;;11.25;9.38;;;;;;;13.56;28.10;101608.66;5242858;28;20050;-77
2022/03/03 14:01:11;;;;;;;12.80;10.50;;;;;;;13.48;28.36;101601.75;5225602;28;20488;-78
2022/03/03 14:03:45;;;;;;;12.40;10.80;;;;;;;13.45;28.63;101603.16;5231940;28;20469;-78
2022/03/03 14:06:18;;;;;;;15.05;11.00;;;;;;;13.55;30.89;101596.69;5243033;28;20030;-75
2022/03/03 14:08:50;;;;;;;14.57;11.00;;;;;;;13.51;29.07;101590.00;5236451;28;20021;-76
2022/03/03 14:11:25;;;;;;;14.15;11.27;;;;;;;13.58;28.93;101592.47;5233374;28;20055;-75
2022/03/03 14:13:57;;;;;;;;;;;;;;;13.88;29.53;101599.69;5230680;28;20036;-75
2022/03/03 14:16:31;;;;;;;15.27;11.85;;;;;;;13.77;29.06;101598.97;5233053;28;19914;-74
2022/03/03 14:19:08;;;;;;;11.60;9.88;;;;;;;13.63;27.94;101598.84;5225938;28;20085;-78
2022/03/03 14:21:39;;;;;;;13.07;9.10;;;;;;;13.62;29.74;101601.91;5241038;28;20029;-78
2022/03/03 14:24:11;;;;;;;11.90;9.55;;;;;;;13.67;29.84;101601.84;5235958;28;20051;-76
2022/03/03 14:26:42;;;;;;;11.25;9.02;;;;;;;13.60;29.66;101596.63;5222037;28;20026;-78
2022/03/03 14:29:14;;;;;;;11.05;10.00;;;;;;;13.48;28.80;101596.19;5220789;28;20034;-79
2022/03/03 14:31:45;;;;;;;12.88;10.75;;;;;;;13.58;28.52;101595.25;5236021;28;20079;-79
2022/03/03 14:34:16;;;;;;;17.73;11.43;;;;;;;13.73;29.15;101591.47;5242910;28;20036;-79
2022/03/03 14:36:47;;;;;;;13.93;9.95;;;;;;;13.75;28.82;101589.25;5240542;28;20071;-78
2022/03/03 14:39:19;;;;;;;14.98;10.88;;;;;;;13.71;30.23;101586.22;5242501;28;20033;-76
2022/03/03 14:41:50;;;;;;;14.10;10.82;;;;;;;13.45;28.59;101580.88;5234499;28;20041;-77
2022/03/03 14:44:21;;;;;;;12.55;10.57;;;;;;;13.57;28.51;101586.03;5242844;28;20105;-78
2022/03/03 14:46:53;;;;;;;12.45;9.95;;;;;;;13.60;29.79;101579.06;5242571;28;20029;-79
2022/03/03 14:49:24;;;;;;;14.40;10.40;;;;;;;13.69;29.60;101580.94;5241928;28;20018;-78
2022/03/03 14:51:58;;;;;;;14.95;10.27;;;;;;;13.71;31.03;101577.84;5237206;28;20062;-80
2022/03/03 14:54:29;;;;;;;13.50;10.80;;;;;;;13.58;28.81;101578.53;5237650;28;20052;-77
2022/03/03 14:57:01;;;;;;;11.88;10.55;;;;;;;13.71;29.56;101583.44;5242322;28;20033;-77
2022/03/03 14:59:32;;;;;;;12.88;10.90;;;;;;;13.51;28.91;101581.66;5236582;28;20033;-76
2022/03/03 15:02:07;;;;;;;15.43;12.75;;;;;;;13.41;29.25;101576.16;5242397;28;20124;-80
2022/03/03 15:04:40;;;;;;;12.52;11.23;;;;;;;13.60;31.11;101581.84;5240624;28;20060;-79
2022/03/03 15:07:11;;;;;;;15.40;12.70;;;;;;;13.70;32.88;101577.03;5241233;28;20488;-78
2022/03/03 15:09:42;;;;;;;18.48;14.77;;;;;;;13.83;32.76;101575.50;5241078;28;20033;-76
2022/03/03 15:12:14;;;;;;;17.50;13.73;;;;;;;13.82;33.29;101575.78;5241133;28;20029;-76
2022/03/03 15:14:45;;;;;;;17.08;13.32;;;;;;;13.78;33.29;101583.06;5237895;28;20056;-75
2022/03/03 15:17:16;;;;;;;18.08;12.70;;;;;;;13.80;32.67;101586.41;5224274;28;20139;-75
2022/03/03 15:19:48;;;;;;;14.80;12.43;;;;;;;13.90;33.46;101587.13;5221380;28;20045;-79
2022/03/03 15:22:19;;;;;;;15.38;13.60;;;;;;;13.94;33.11;101578.19;5231052;28;20026;-72
2022/03/03 15:24:52;;;;;;;13.95;12.50;;;;;;;13.88;32.39;101575.47;5239767;28;20025;-72
2022/03/03 15:27:23;;;;;;;15.07;13.48;;;;;;;13.88;32.36;101578.25;5240409;28;20484;-72
2022/03/03 15:29:57;;;;;;;20.17;13.68;;;;;;;13.90;32.40;101575.97;5240054;28;20147;-71
2022/03/03 15:32:29;;;;;;;17.80;13.73;;;;;;;13.82;32.33;101578.59;5231191;28;20334;-71
2022/03/03 15:37:51;;;;;;;18.73;14.75;;;;;;;13.96;32.39;101567.56;5241258;28;20069;-71
2022/03/03 15:40:23;;;;;;;15.45;12.93;;;;;;;13.84;32.17;101577.16;5226746;28;20033;-76
2022/03/03 15:42:54;;;;;;;15.88;13.25;;;;;;;13.95;32.62;101583.47;5220605;28;20056;-76
2022/03/03 15:45:25;;;;;;;13.63;12.20;;;;;;;14.14;32.31;101569.63;5219891;28;20030;-76
2022/03/03 15:47:57;;;;;;;14.20;12.73;;;;;;;14.12;32.70;101569.91;5220397;28;20062;-77
2022/03/03 15:50:30;;;;;;;17.30;12.55;;;;;;;13.82;32.53;101570.22;5237695;28;20036;-76
2022/03/03 15:53:01;;;;;;;21.67;13.25;;;;;;;13.79;32.61;101573.59;5221883;28;20495;-76
2022/03/03 15:55:32;;;;;;;16.38;12.18;;;;;;;13.63;33.06;101570.13;5226146;28;20033;-76
2022/03/03 15:58:04;;;;;;;19.60;13.93;;;;;;;13.55;34.67;101566.03;5240844;28;20089;-77
2022/03/03 16:00:35;;;;;;;16.10;12.57;;;;;;;13.31;32.72;101574.28;5240155;28;20049;-77
2022/03/03 16:03:06;;;;;;;15.05;12.63;;;;;;;13.19;33.23;101573.78;5241072;28;20473;-76
2022/03/03 16:05:38;;;;;;;15.55;12.75;;;;;;;13.23;37.97;101566.53;5238319;28;20121;-76
2022/03/03 16:08:15;;;;;;;16.17;10.70;;;;;;;13.14;40.22;101569.09;5237148;28;20076;-77
2022/03/03 16:10:46;;;;;;;12.65;9.75;;;;;;;12.94;35.68;101566.47;5233801;28;20022;-77
2022/03/03 16:13:17;;;;;;;16.15;13.70;;;;;;;12.80;34.18;101563.47;5231056;28;20116;-77
2022/03/03 16:15:49;;;;;;;13.95;12.15;;;;;;;12.63;33.90;101566.63;5240597;28;20033;-75
2022/03/03 16:18:24;;;;;;;18.92;13.82;;;;;;;12.47;33.75;101556.69;5234803;28;20040;-75
2022/03/03 16:20:55;;;;;;;18.40;13.80;;;;;;;12.48;34.13;101567.53;5234232;28;20399;-76
2022/03/03 16:23:27;;;;;;;12.70;10.48;;;;;;;12.59;40.61;101569.13;5244460;28;20058;-76
2022/03/03 16:25:58;;;;;;;13.35;10.98;;;;;;;12.51;39.99;101563.34;5230257;28;20026;-75
2022/03/03 16:28:30;;;;;;;16.85;12.32;;;;;;;12.42;37.28;101563.09;5233808;28;20029;-75
2022/03/03 16:31:02;;;;;;;22.83;19.77;;;;;;;12.33;35.03;101571.19;5255221;28;20112;-77
2022/03/03 16:33:38;;;;;;;14.43;12.38;;;;;;;12.34;40.61;101569.25;5243520;28;20108;-75
2022/03/03 16:36:10;;;;;;;15.70;12.05;;;;;;;12.33;35.38;101564.81;5237059;28;20030;-74
2022/03/03 16:38:44;;;;;;;18.65;14.40;;;;;;;12.14;36.98;101570.13;5244393;28;20030;-74
2022/03/03 16:41:15;;;;;;;16.05;11.38;;;;;;;12.13;34.80;101569.31;5229788;28;20507;-74
2022/03/03 16:43:46;;;;;;;14.60;12.52;;;;;;;12.10;36.23;101572.66;5225764;28;20029;-73
2022/03/03 16:46:18;;;;;;;14.63;11.48;;;;;;;12.17;36.65;101567.66;5229605;28;20021;-74
2022/03/03 16:48:49;;;;;;;14.40;11.40;;;;;;;12.18;39.54;101569.31;5264348;28;20033;-73
2022/03/03 16:51:22;;;;;;;14.13;12.65;;;;;;;12.02;35.07;101575.22;5256884;28;20037;-74
2022/03/03 16:53:54;;;;;;;15.05;11.55;;;;;;;11.97;36.80;101578.81;5244609;28;20025;-75
2022/03/03 16:56:25;;;;;;;11.73;10.52;;;;;;;12.02;38.65;101576.03;5240604;28;20025;-75
2022/03/03 16:58:57;;;;;;;12.15;10.75;;;;;;;11.92;37.64;101573.28;5223667;28;20085;-75
2022/03/03 17:01:28;;;;;;;12.23;10.95;;;;;;;11.86;36.73;101574.34;5224013;28;20018;-75
2022/03/03 17:04:00;;;;;;;13.43;12.02;;;;;;;11.78;35.17;101580.47;5230605;28;20161;-75
2022/03/03 17:06:32;;;;;;;11.75;9.90;;;;;;;11.84;39.51;101577.44;5239584;28;20071;-74
2022/03/03 17:09:04;;;;;;;14.40;11.05;;;;;;;11.85;42.39;101575.47;5223869;28;20033;-74
2022/03/03 17:11:36;;;;;;;13.88;11.40;;;;;;;11.56;36.75;101580.78;5227119;28;20021;-75
2022/03/03 17:14:07;;;;;;;15.15;10.75;;;;;;;11.64;36.92;101586.59;5237199;28;20045;-75
2022/03/03 17:16:39;;;;;;;13.15;11.77;;;;;;;11.41;35.81;101588.00;5223360;28;20034;-75
2022/03/03 17:19:10;;;;;;;14.45;12.25;;;;;;;11.28;36.39;101583.00;5226446;28;20041;-85
2022/03/03 17:21:43;;;;;;;17.73;12.32;;;;;;;11.14;35.80;101590.19;5240347;28;20036;-86
2022/03/03 17:24:19;;;;;;;15.63;12.98;;;;;;;11.20;36.01;101589.94;5253366;28;20017;-86
2022/03/03 17:26:56;;;;;;;15.13;12.13;;;;;;;11.18;36.21;101594.94;5243830;28;20025;-85
2022/03/03 17:29:28;;;;;;;18.13;14.00;;;;;;;11.06;36.33;101595.19;5246179;28;20033;-85
